Time;durP1;ratioP1;P1;durP2;ratioP2;P2;SDS_P1;SDS_P2;PMS_P1;PMS_P2;Temp;Humidity;BMP_temperature;BMP_pressure;BME280_temperature;BME280_humidity;BME280_pressure;Samples;Min_cycle;Max_cycle;Signal;HPM_P1;HPM_P2
2024/03/15 00:01:17;;;;;;;30.42;17.10;;;;;;;11.30;61.73;100184.69;5116353;27;20047;-47
2024/03/15 00:03:45;;;;;;;30.60;17.73;;;;;;;11.37;62.05;100185.13;5115935;27;20100;-50
2024/03/15 00:06:17;;;;;;;31.90;17.17;;;;;;;11.31;61.79;100183.72;5116147;27;20150;-48
2024/03/15 00:08:46;;;;;;;30.50;18.15;;;;;;;11.15;63.11;100194.53;5116188;27;20051;-48
2024/03/15 00:11:15;;;;;;;32.90;17.83;;;;;;;11.16;63.37;100195.38;5116248;27;20043;-52
2024/03/15 00:13:44;;;;;;;33.45;18.45;;;;;;;11.18;63.40;100196.13;5115707;27;20059;-48
2024/03/15 00:16:14;;;;;;;29.63;18.17;;;;;;;11.13;63.93;100195.56;5116272;27;20055;-49
2024/03/15 00:18:42;;;;;;;28.75;17.02;;;;;;;11.06;64.56;100194.25;5115523;27;20087;-46
2024/03/15 00:21:15;;;;;;;31.85;17.65;;;;;;;10.97;64.71;100192.16;5115569;27;20075;-49
2024/03/15 00:23:43;;;;;;;27.83;16.25;;;;;;;11.04;64.67;100185.47;5116040;27;20043;-49
2024/03/15 00:26:12;;;;;;;31.00;17.75;;;;;;;10.98;65.30;100185.84;5115302;27;20039;-46
2024/03/15 00:28:40;;;;;;;31.83;16.80;;;;;;;10.97;65.75;100185.00;5115467;27;20571;-49
2024/03/15 00:31:08;;;;;;;27.30;17.02;;;;;;;10.91;66.27;100190.75;5115633;27;20510;-50
2024/03/15 00:33:38;;;;;;;25.73;16.38;;;;;;;10.93;66.90;100193.31;5115392;27;20051;-49
2024/03/15 00:36:07;;;;;;;28.27;16.50;;;;;;;10.94;66.93;100192.34;5115413;27;20134;-49
2024/03/15 00:38:35;;;;;;;28.10;16.20;;;;;;;10.80;67.71;100188.72;5115598;27;20043;-50
2024/03/15 00:41:03;;;;;;;27.23;16.67;;;;;;;10.81;68.22;100185.13;5115379;27;20078;-48
2024/03/15 00:43:32;;;;;;;29.60;16.67;;;;;;;10.77;68.63;100183.56;5114968;27;20047;-48
2024/03/15 00:46:04;;;;;;;27.35;16.10;;;;;;;10.76;69.00;100181.00;5115110;27;20221;-50
2024/03/15 00:48:35;;;;;;;30.15;17.25;;;;;;;10.78;69.09;100179.09;5115492;27;20136;-48
2024/03/15 00:51:04;;;;;;;27.00;16.10;;;;;;;10.82;69.27;100176.16;5115263;27;20510;-50
2024/03/15 00:53:32;;;;;;;28.08;15.32;;;;;;;10.90;69.08;100181.00;5115053;27;20047;-50
2024/03/15 00:56:00;;;;;;;30.08;16.92;;;;;;;10.78;69.47;100174.63;5115229;27;20102;-47
2024/03/15 00:58:30;;;;;;;26.88;16.15;;;;;;;10.72;70.37;100171.50;5114977;27;20385;-48
2024/03/15 01:00:59;;;;;;;26.17;15.57;;;;;;;10.66;71.48;100175.38;5114891;27;20047;-48
2024/03/15 01:03:27;;;;;;;27.05;15.68;;;;;;;10.63;71.62;100170.25;5114484;27;20043;-49
2024/03/15 01:05:56;;;;;;;25.77;15.38;;;;;;;10.41;73.36;100169.81;5114869;27;20115;-48
2024/03/15 01:08:24;;;;;;;24.42;14.98;;;;;;;10.25;75.87;100170.78;5114831;27;20138;-47
2024/03/15 01:10:53;;;;;;;26.55;15.77;;;;;;;10.30;76.16;100166.00;5114677;27;20079;-55
2024/03/15 01:13:21;;;;;;;25.25;15.18;;;;;;;10.25;76.36;100170.78;5114432;27;20059;-47
2024/03/15 01:15:49;;;;;;;26.58;15.77;;;;;;;10.34;76.13;100164.03;5114222;27;20054;-49
2024/03/15 01:18:17;;;;;;;26.15;15.10;;;;;;;10.32;75.85;100165.91;5114598;27;20123;-48
2024/03/15 01:20:46;;;;;;;26.45;15.77;;;;;;;10.26;76.76;100168.97;5114459;27;20125;-48
2024/03/15 01:23:18;;;;;;;29.70;16.00;;;;;;;10.31;76.79;100162.38;5113913;27;20040;-49
2024/03/15 01:25:47;;;;;;;29.45;17.05;;;;;;;10.25;77.42;100168.09;5114895;27;20103;-48
2024/03/15 01:28:16;;;;;;;28.80;16.50;;;;;;;10.24;77.73;100173.53;5114247;27;20170;-46
2024/03/15 01:30:45;;;;;;;26.75;15.10;;;;;;;9.91;79.38;100177.19;5114477;27;20479;-49
2024/03/15 01:33:14;;;;;;;28.60;16.75;;;;;;;10.01;80.26;100178.38;5114357;27;20100;-48
2024/03/15 01:35:42;;;;;;;26.77;16.10;;;;;;;10.04;80.27;100175.53;5114311;27;20039;-49
2024/03/15 01:38:10;;;;;;;27.13;15.35;;;;;;;9.99;80.91;100179.41;5113977;27;20440;-50
2024/03/15 01:40:39;;;;;;;27.67;15.90;;;;;;;9.95;82.35;100169.91;5114141;27;20077;-49
2024/03/15 01:43:10;;;;;;;28.55;15.90;;;;;;;9.86;83.72;100173.09;5113807;27;20051;-49
2024/03/15 01:45:39;;;;;;;26.58;16.35;;;;;;;9.78;85.38;100170.03;5114654;27;20046;-47
2024/03/15 01:48:07;;;;;;;27.88;15.20;;;;;;;9.75;86.67;100174.59;5114203;27;20058;-48
2024/03/15 01:50:36;;;;;;;26.30;15.57;;;;;;;9.74;87.87;100171.97;5114133;27;20398;-49
2024/03/15 01:53:04;;;;;;;25.38;14.52;;;;;;;9.58;89.77;100177.34;5113791;27;20504;-46
2024/03/15 01:55:33;;;;;;;26.73;15.35;;;;;;;9.65;88.76;100181.38;5113844;27;20047;-51
2024/03/15 01:58:08;;;;;;;23.65;14.25;;;;;;;9.78;87.99;100181.53;5113668;27;20047;-48
2024/03/15 02:00:38;;;;;;;24.67;14.05;;;;;;;9.84;86.66;100182.97;5114663;27;20494;-46
2024/03/15 02:03:08;;;;;;;24.17;14.40;;;;;;;9.74;88.49;100183.50;5114040;27;20125;-49
2024/03/15 02:05:37;;;;;;;25.80;14.63;;;;;;;9.75;88.11;100187.03;5113785;28;20126;-50
2024/03/15 02:08:07;;;;;;;23.88;13.68;;;;;;;9.64;89.88;100184.97;5113421;27;20047;-49
2024/03/15 02:10:36;;;;;;;24.70;14.32;;;;;;;9.34;95.10;100178.72;5114253;27;20107;-46
2024/03/15 02:13:05;;;;;;;24.55;14.50;;;;;;;9.23;98.67;100178.47;5113746;28;20475;-48
2024/03/15 02:15:34;;;;;;;25.67;14.63;;;;;;;9.30;98.10;100180.72;5113703;28;20039;-46
2024/03/15 02:18:03;;;;;;;23.92;13.23;;;;;;;9.41;97.32;100182.78;5113714;28;20389;-47
2024/03/15 02:20:32;;;;;;;24.70;14.05;;;;;;;9.57;94.31;100186.28;5113615;28;20403;-46
2024/03/15 02:23:00;;;;;;;25.88;14.57;;;;;;;9.54;94.30;100183.78;5113416;28;20047;-48
2024/03/15 02:25:28;;;;;;;23.40;13.95;;;;;;;9.57;94.38;100178.31;5113441;28;20451;-48
2024/03/15 02:27:57;;;;;;;23.88;13.50;;;;;;;9.64;93.26;100184.97;5113724;28;20047;-48
2024/03/15 02:30:28;;;;;;;24.23;13.18;;;;;;;9.72;92.32;100185.41;5113683;28;20070;-48
2024/03/15 02:32:58;;;;;;;22.20;13.15;;;;;;;9.66;91.50;100185.75;5114136;28;20047;-46
2024/03/15 02:35:27;;;;;;;24.85;14.10;;;;;;;9.39;94.10;100188.19;5115252;27;20046;-48
2024/03/15 02:38:00;;;;;;;24.42;13.82;;;;;;;9.46;93.38;100197.56;5118443;27;20043;-47
2024/03/15 02:40:28;;;;;;;24.80;13.18;;;;;;;9.45;93.14;100190.47;5117507;27;20503;-49
2024/03/15 02:42:57;;;;;;;29.17;15.05;;;;;;;9.49;93.41;100191.19;5117356;27;20481;-47
2024/03/15 02:45:26;;;;;;;23.25;14.15;;;;;;;9.32;96.43;100188.59;5117410;27;20073;-49
2024/03/15 02:47:55;;;;;;;28.98;14.57;;;;;;;9.36;95.14;100190.13;5117354;27;20054;-48
2024/03/15 02:50:23;;;;;;;25.83;14.48;;;;;;;9.28;95.64;100192.41;5117568;27;20043;-46
2024/03/15 02:52:52;;;;;;;25.58;14.63;;;;;;;9.18;98.86;100184.94;5117468;27;20040;-49
2024/03/15 02:55:21;;;;;;;26.33;14.75;;;;;;;9.32;97.84;100188.59;5117570;27;20772;-48
2024/03/15 02:57:50;;;;;;;28.63;14.98;;;;;;;9.16;97.40;100199.22;5117396;27;20046;-49
2024/03/15 03:00:18;;;;;;;26.25;14.88;;;;;;;9.14;98.68;100191.34;5117291;27;20050;-48
2024/03/15 03:02:47;;;;;;;24.80;14.68;;;;;;;9.02;100.00;100192.03;5117207;27;20051;-49
2024/03/15 03:05:17;;;;;;;25.48;14.98;;;;;;;9.06;100.00;100188.25;5117333;27;20047;-49
2024/03/15 03:07:49;;;;;;;23.30;13.93;;;;;;;8.96;100.00;100187.03;5118105;27;20053;-46
2024/03/15 03:10:18;;;;;;;24.67;14.02;;;;;;;8.87;100.00;100190.19;5117499;27;20047;-46
2024/03/15 03:12:48;;;;;;;25.70;14.98;;;;;;;8.80;100.00;100194.13;5117207;27;20043;-48
2024/03/15 03:15:16;;;;;;;26.90;14.48;;;;;;;8.91;100.00;100194.41;5116918;27;20039;-47
2024/03/15 03:17:45;;;;;;;28.17;15.13;;;;;;;8.90;100.00;100198.03;5116708;27;20043;-48
2024/03/15 03:20:18;;;;;;;23.52;13.77;;;;;;;8.80;100.00;100191.47;5117105;27;20142;-48
2024/03/15 03:22:48;;;;;;;24.13;14.40;;;;;;;8.88;100.00;100195.44;5117762;27;20089;-49
2024/03/15 03:25:18;;;;;;;25.15;13.88;;;;;;;8.80;100.00;100197.66;5117184;27;20612;-47
2024/03/15 03:27:46;;;;;;;26.35;14.38;;;;;;;8.84;100.00;100198.34;5117089;27;20047;-47
2024/03/15 03:30:15;;;;;;;20.40;12.93;;;;;;;8.66;100.00;100199.31;5116705;27;20124;-46
2024/03/15 03:32:44;;;;;;;24.20;13.82;;;;;;;8.75;100.00;100204.16;5116675;27;20125;-48
2024/03/15 03:35:12;;;;;;;21.20;13.13;;;;;;;8.72;100.00;100199.00;5116500;27;20054;-45
2024/03/15 03:37:40;;;;;;;25.98;13.60;;;;;;;8.87;100.00;100203.47;5116321;27;20042;-49
2024/03/15 03:40:14;;;;;;;23.25;13.10;;;;;;;8.84;100.00;100199.19;5116248;27;20082;-47
2024/03/15 03:42:44;;;;;;;23.63;13.23;;;;;;;8.78;100.00;100199.53;5117181;27;20557;-47
2024/03/15 03:45:17;;;;;;;24.48;13.77;;;;;;;8.85;100.00;100210.69;5116594;27;20162;-48
2024/03/15 03:47:46;;;;;;;25.08;14.40;;;;;;;8.87;100.00;100207.00;5116601;27;20078;-47
2024/03/15 03:50:14;;;;;;;25.10;14.02;;;;;;;8.87;100.00;100206.16;5116087;27;20149;-47
2024/03/15 03:52:43;;;;;;;23.55;13.43;;;;;;;8.86;100.00;100215.06;5115841;27;20078;-46
2024/03/15 03:55:12;;;;;;;24.80;13.88;;;;;;;8.91;100.00;100210.38;5116105;27;20133;-48
2024/03/15 03:57:40;;;;;;;23.13;13.43;;;;;;;8.88;100.00;100208.75;5115931;27;20357;-47
2024/03/15 04:00:15;;;;;;;19.98;12.50;;;;;;;8.98;100.00;100203.78;5116488;27;20213;-50
2024/03/15 04:02:44;;;;;;;26.25;13.23;;;;;;;9.00;100.00;100207.22;5116162;27;20055;-47
2024/03/15 04:05:14;;;;;;;24.38;13.55;;;;;;;8.74;100.00;100203.28;5115877;27;20043;-48
2024/03/15 04:07:44;;;;;;;26.45;14.30;;;;;;;8.71;100.00;100215.91;5115938;27;20047;-48
2024/03/15 04:10:13;;;;;;;24.88;13.38;;;;;;;8.70;100.00;100215.03;5115814;27;20050;-48
2024/03/15 04:12:42;;;;;;;22.30;13.00;;;;;;;8.68;100.00;100216.03;5115679;27;20055;-48
2024/03/15 04:15:12;;;;;;;25.67;13.50;;;;;;;8.60;100.00;100213.81;5115825;27;20196;-47
2024/03/15 04:17:43;;;;;;;23.58;13.32;;;;;;;8.62;100.00;100216.38;5115960;27;20088;-48
2024/03/15 04:20:12;;;;;;;27.27;14.07;;;;;;;8.72;100.00;100217.63;5115794;27;20129;-48
2024/03/15 04:22:42;;;;;;;23.30;12.98;;;;;;;8.66;100.00;100217.94;5115736;27;20130;-48
2024/03/15 04:25:10;;;;;;;22.73;13.70;;;;;;;8.56;100.00;100215.75;5115548;27;20478;-47
2024/03/15 04:27:39;;;;;;;21.65;12.73;;;;;;;8.43;100.00;100220.00;5115458;27;20160;-46
2024/03/15 04:30:14;;;;;;;24.60;13.60;;;;;;;8.21;100.00;100219.38;5115307;27;20768;-49
2024/03/15 04:32:43;;;;;;;23.52;11.88;;;;;;;8.18;100.00;100215.03;5116315;27;20047;-46
2024/03/15 04:35:13;;;;;;;23.00;12.75;;;;;;;8.03;100.00;100216.69;5115424;27;20047;-45
2024/03/15 04:37:41;;;;;;;21.90;11.98;;;;;;;8.01;100.00;100221.22;5115463;27;20073;-46
2024/03/15 04:40:10;;;;;;;20.30;10.98;;;;;;;8.03;100.00;100222.00;5115043;27;20079;-48
2024/03/15 04:42:39;;;;;;;22.15;12.30;;;;;;;7.96;100.00;100228.56;5115139;27;20047;-50
2024/03/15 04:45:09;;;;;;;21.73;11.77;;;;;;;7.93;100.00;100226.06;5114864;27;20071;-46
2024/03/15 04:47:39;;;;;;;21.13;11.55;;;;;;;7.87;100.00;100231.66;5115601;27;20407;-45
2024/03/15 04:50:09;;;;;;;21.45;11.40;;;;;;;7.90;100.00;100225.34;5115282;27;20047;-48
2024/03/15 04:52:39;;;;;;;20.90;11.82;;;;;;;7.92;100.00;100237.63;5115152;27;20082;-48
2024/03/15 04:55:09;;;;;;;19.35;11.27;;;;;;;7.85;100.00;100233.53;5114960;27;20453;-45
2024/03/15 04:57:38;;;;;;;21.13;11.50;;;;;;;7.66;100.00;100233.56;5114391;27;20100;-45
2024/03/15 05:00:17;;;;;;;20.17;11.82;;;;;;;7.72;100.00;100237.72;5115199;27;20043;-46
2024/03/15 05:02:47;;;;;;;23.38;11.48;;;;;;;7.86;100.00;100234.41;5116316;27;20380;-46
2024/03/15 05:05:16;;;;;;;19.75;11.90;;;;;;;7.97;100.00;100238.22;5114698;27;20492;-45
2024/03/15 05:07:46;;;;;;;19.83;11.25;;;;;;;7.84;100.00;100234.47;5114522;27;20455;-51
2024/03/15 05:10:16;;;;;;;20.70;11.55;;;;;;;7.89;100.00;100243.06;5114763;27;20455;-48
2024/03/15 05:12:48;;;;;;;21.05;11.13;;;;;;;7.85;100.00;100240.66;5114846;27;20131;-46
2024/03/15 05:15:16;;;;;;;20.17;11.20;;;;;;;8.02;100.00;100246.00;5114974;27;20071;-48
2024/03/15 05:17:46;;;;;;;16.33;10.15;;;;;;;8.01;100.00;100246.94;5114634;27;20195;-45
2024/03/15 05:20:15;;;;;;;17.88;9.88;;;;;;;7.99;100.00;100241.66;5114506;27;20047;-47
2024/03/15 05:22:44;;;;;;;20.60;11.27;;;;;;;7.95;100.00;100242.78;5114575;27;20203;-46
2024/03/15 05:25:15;;;;;;;18.77;10.98;;;;;;;8.02;100.00;100240.69;5114805;27;20050;-45
2024/03/15 05:27:45;;;;;;;17.52;10.18;;;;;;;7.95;100.00;100240.13;5114558;27;20047;-48
2024/03/15 05:30:17;;;;;;;20.65;10.80;;;;;;;7.96;100.00;100243.63;5113637;27;20053;-46
2024/03/15 05:32:47;;;;;;;20.08;12.10;;;;;;;7.87;100.00;100247.59;5114492;27;20043;-46
2024/03/15 05:35:18;;;;;;;18.85;11.23;;;;;;;7.98;100.00;100250.56;5113956;27;20459;-49
2024/03/15 05:37:47;;;;;;;19.75;11.18;;;;;;;8.13;100.00;100242.81;5114854;27;20139;-48
2024/03/15 05:40:17;;;;;;;21.83;11.15;;;;;;;8.06;100.00;100252.88;5114063;27;20487;-48
2024/03/15 05:42:47;;;;;;;21.52;12.02;;;;;;;8.07;100.00;100246.59;5114326;27;20133;-46
2024/03/15 05:45:20;;;;;;;21.73;10.95;;;;;;;7.96;100.00;100252.47;5114217;27;20411;-46
2024/03/15 05:47:50;;;;;;;20.02;11.35;;;;;;;8.06;100.00;100246.69;5111648;27;20043;-47
2024/03/15 05:50:20;;;;;;;19.92;11.23;;;;;;;8.16;100.00;100245.28;5114454;27;20043;-46
2024/03/15 05:52:49;;;;;;;17.30;10.40;;;;;;;8.15;100.00;100256.84;5114941;27;20138;-46
2024/03/15 05:55:18;;;;;;;19.17;11.70;;;;;;;8.23;100.00;100249.38;5114664;27;20078;-45
2024/03/15 05:57:46;;;;;;;18.92;10.30;;;;;;;8.34;100.00;100249.69;5113832;27;20082;-46
2024/03/15 06:00:19;;;;;;;19.75;10.13;;;;;;;8.45;100.00;100254.47;5113624;27;20126;-45
2024/03/15 06:02:49;;;;;;;16.80;10.48;;;;;;;8.09;100.00;100254.50;5114802;27;20362;-48
2024/03/15 06:05:18;;;;;;;18.02;10.93;;;;;;;7.97;100.00;100256.81;5113905;27;20758;-47
2024/03/15 06:07:47;;;;;;;16.35;9.70;;;;;;;7.75;100.00;100258.81;5114093;28;20055;-48
2024/03/15 06:10:20;;;;;;;;;;;;;;;8.10;100.00;100270.34;5114920;27;20070;-45
2024/03/15 06:12:50;;;;;;;20.42;10.40;;;;;;;8.33;100.00;100263.91;5129700;27;19966;-47
2024/03/15 06:15:21;;;;;;;18.83;10.27;;;;;;;8.79;100.00;100266.88;5114055;28;20411;-49
2024/03/15 06:17:50;;;;;;;16.15;9.75;;;;;;;8.47;100.00;100273.84;5113841;28;20043;-46
2024/03/15 06:20:18;;;;;;;19.45;9.77;;;;;;;8.56;100.00;100270.72;5113271;28;20473;-48
2024/03/15 06:22:47;;;;;;;18.83;10.88;;;;;;;8.92;99.17;100269.75;5113542;28;20104;-47
2024/03/15 06:25:15;;;;;;;16.77;9.77;;;;;;;8.91;97.15;100273.34;5113282;28;20053;-47
2024/03/15 06:27:45;;;;;;;18.88;10.63;;;;;;;9.17;94.15;100272.84;5113332;28;20070;-45
2024/03/15 06:30:14;;;;;;;13.82;9.30;;;;;;;9.27;92.78;100275.84;5113635;28;20047;-47
2024/03/15 06:32:43;;;;;;;15.80;9.48;;;;;;;8.83;96.55;100277.28;5113558;28;20487;-48
2024/03/15 06:35:19;;;;;;;16.60;9.70;;;;;;;9.06;94.43;100272.53;5103565;28;20050;-49
2024/03/15 06:37:53;;;;;;;15.52;9.18;;;;;;;9.17;93.40;100267.50;5109818;28;20446;-47
2024/03/15 06:40:30;;;;;;;15.70;8.68;;;;;;;8.80;97.99;100280.09;5109945;28;20047;-46
2024/03/15 06:45:57;;;;;;;16.38;9.40;;;;;;;9.12;96.83;100273.06;5109990;28;20047;-47
2024/03/15 06:48:43;;;;;;;15.90;9.30;;;;;;;8.83;98.56;100284.41;5109796;28;20135;-47
2024/03/15 06:53:58;;;;;;;15.23;8.57;;;;;;;9.49;93.73;100280.84;5112154;28;20043;-48
2024/03/15 06:56:26;;;;;;;15.70;8.88;;;;;;;9.43;92.84;100276.72;5112319;28;20426;-48
2024/03/15 06:58:55;;;;;;;15.23;9.48;;;;;;;9.46;93.19;100280.09;5113100;28;20050;-49
2024/03/15 07:01:23;;;;;;;15.63;8.77;;;;;;;9.67;91.12;100278.03;5113575;28;20047;-50
2024/03/15 07:03:52;;;;;;;16.17;9.45;;;;;;;9.47;90.95;100283.59;5111696;28;20043;-52
2024/03/15 07:06:21;;;;;;;15.82;9.25;;;;;;;9.51;90.93;100285.16;5112958;28;20149;-52
2024/03/15 07:08:50;;;;;;;14.65;9.32;;;;;;;9.63;89.30;100287.13;5112765;28;20419;-50
2024/03/15 07:11:18;;;;;;;16.90;9.15;;;;;;;9.78;88.85;100276.56;5112861;28;20046;-49
2024/03/15 07:13:47;;;;;;;15.02;8.18;;;;;;;9.88;88.54;100283.09;5107056;28;20472;-54
2024/03/15 07:16:15;;;;;;;14.73;8.68;;;;;;;9.88;86.43;100283.94;5092367;28;20492;-54
2024/03/15 07:18:44;;;;;;;14.43;8.32;;;;;;;9.80;85.31;100283.53;5092397;28;20055;-50
2024/03/15 07:21:12;;;;;;;15.15;8.98;;;;;;;9.97;84.51;100285.22;5093472;28;20143;-48
2024/03/15 07:23:41;;;;;;;14.63;8.93;;;;;;;10.34;82.84;100283.16;5106093;27;20488;-47
2024/03/15 07:26:10;;;;;;;13.80;8.45;;;;;;;10.01;83.09;100289.44;5116660;27;20055;-47
2024/03/15 07:28:39;;;;;;;15.30;8.25;;;;;;;9.57;85.39;100295.47;5116418;27;20070;-46
2024/03/15 07:31:08;;;;;;;15.93;8.63;;;;;;;10.06;84.32;100294.50;5116567;27;20047;-51
2024/03/15 07:33:38;;;;;;;16.75;9.50;;;;;;;10.47;81.06;100290.31;5110937;28;20051;-49
2024/03/15 07:36:07;;;;;;;15.60;9.27;;;;;;;10.62;79.87;100291.22;5096196;28;20088;-45
2024/03/15 07:38:37;;;;;;;16.75;9.32;;;;;;;10.54;79.59;100298.81;5095675;28;20062;-45
2024/03/15 07:41:05;;;;;;;19.42;9.48;;;;;;;10.82;79.22;100298.03;5095145;28;20051;-49
2024/03/15 07:43:34;;;;;;;14.57;8.70;;;;;;;10.77;78.31;100300.97;5104646;27;20504;-46
2024/03/15 07:46:02;;;;;;;17.08;9.52;;;;;;;10.99;77.91;100302.31;5113693;27;20067;-46
2024/03/15 07:48:31;;;;;;;15.63;8.85;;;;;;;10.94;77.23;100309.78;5106542;28;20088;-48
2024/03/15 07:50:59;;;;;;;16.20;9.80;;;;;;;10.68;78.02;100306.00;5095414;28;20119;-45
2024/03/15 07:53:28;;;;;;;14.95;9.43;;;;;;;10.85;77.88;100309.38;5119556;27;20092;-48
2024/03/15 07:55:56;;;;;;;16.02;9.90;;;;;;;11.02;77.74;100305.69;5115102;27;20065;-46
2024/03/15 07:58:29;;;;;;;15.20;9.05;;;;;;;11.32;76.29;100304.75;5115085;27;20047;-46
2024/03/15 08:00:57;;;;;;;18.65;10.55;;;;;;;11.23;75.29;100303.50;5115534;27;20486;-45
2024/03/15 08:03:26;;;;;;;14.00;9.55;;;;;;;11.27;75.46;100305.03;5112921;27;20043;-48
2024/03/15 08:06:00;;;;;;;16.10;10.15;;;;;;;10.88;78.61;100303.84;5115386;27;20112;-46
2024/03/15 08:08:30;;;;;;;17.63;10.50;;;;;;;11.13;77.13;100302.34;5115996;27;20047;-48
2024/03/15 08:11:00;;;;;;;16.33;9.98;;;;;;;11.25;77.44;100300.75;5115119;27;20459;-47
2024/03/15 08:13:32;;;;;;;15.82;10.07;;;;;;;11.45;76.56;100295.00;5113540;27;20047;-45
2024/03/15 08:16:18;;;;;;;16.55;9.40;;;;;;;11.56;76.05;100299.66;5114809;27;20074;-46
2024/03/15 08:18:48;;;;;;;16.20;9.82;;;;;;;11.43;76.03;100299.59;5117607;27;20050;-46
2024/03/15 08:21:17;;;;;;;17.40;10.07;;;;;;;11.27;76.12;100299.69;5115414;27;20051;-45
2024/03/15 08:23:47;;;;;;;16.20;10.40;;;;;;;11.16;77.14;100304.81;5113094;27;20039;-48
2024/03/15 08:26:15;;;;;;;16.48;10.73;;;;;;;11.32;77.41;100308.28;5115052;27;20522;-48
2024/03/15 08:28:44;;;;;;;15.55;10.20;;;;;;;11.51;76.21;100307.13;5114750;27;20047;-47
2024/03/15 08:31:12;;;;;;;19.40;10.48;;;;;;;11.66;75.73;100303.47;5114933;27;20047;-47
2024/03/15 08:33:41;;;;;;;16.88;10.00;;;;;;;11.75;74.77;100300.19;5112511;27;20069;-48
2024/03/15 08:36:09;;;;;;;19.15;10.75;;;;;;;11.68;74.65;100302.44;5114630;27;20050;-46
2024/03/15 08:38:38;;;;;;;18.75;11.10;;;;;;;11.70;74.92;100303.19;5115132;27;20036;-45
2024/03/15 08:41:06;;;;;;;18.30;10.93;;;;;;;12.08;73.58;100297.22;5114578;27;20384;-46
2024/03/15 08:43:37;;;;;;;16.65;10.50;;;;;;;12.26;72.42;100296.00;5112908;27;20043;-47
2024/03/15 08:46:06;;;;;;;20.85;11.52;;;;;;;11.98;72.52;100296.09;5114546;27;20043;-46
2024/03/15 08:48:34;;;;;;;18.73;11.23;;;;;;;12.11;72.47;100291.66;5110490;28;20039;-45
2024/03/15 08:51:03;;;;;;;16.33;10.63;;;;;;;12.13;72.62;100292.41;5094120;28;20050;-46
2024/03/15 08:53:33;;;;;;;19.17;11.00;;;;;;;11.89;74.02;100291.34;5102103;27;20097;-46
2024/03/15 08:56:01;;;;;;;18.42;10.77;;;;;;;11.76;74.33;100291.22;5114478;27;20049;-46
2024/03/15 08:58:29;;;;;;;18.98;10.60;;;;;;;11.82;74.61;100296.22;5114397;27;20155;-46
2024/03/15 09:00:58;;;;;;;19.52;10.75;;;;;;;11.79;75.26;100291.06;5113845;27;20380;-47
2024/03/15 09:03:30;;;;;;;18.83;10.30;;;;;;;11.61;74.85;100292.22;5108594;28;20052;-45
2024/03/15 09:05:58;;;;;;;19.88;11.50;;;;;;;11.74;74.77;100294.00;5093824;28;20048;-47
2024/03/15 09:08:27;;;;;;;17.17;10.75;;;;;;;12.00;74.25;100287.00;5093604;28;20043;-46
2024/03/15 09:10:55;;;;;;;22.73;11.95;;;;;;;12.35;72.26;100290.97;5093728;28;20043;-46
2024/03/15 09:13:24;;;;;;;19.92;12.23;;;;;;;12.39;71.65;100290.69;5100482;27;20047;-45
2024/03/15 09:15:55;;;;;;;21.10;11.85;;;;;;;12.38;71.21;100286.28;5114299;27;20375;-45
2024/03/15 09:18:24;;;;;;;19.95;11.13;;;;;;;12.26;70.62;100289.78;5114249;27;20070;-45
2024/03/15 09:20:54;;;;;;;20.58;12.30;;;;;;;12.00;71.80;100295.03;5113575;27;20125;-46
2024/03/15 09:23:24;;;;;;;20.55;11.80;;;;;;;12.29;70.77;100289.56;5112147;27;20126;-46
2024/03/15 09:25:53;;;;;;;18.92;11.90;;;;;;;12.07;71.80;100284.81;5114031;27;20067;-46
2024/03/15 09:28:23;;;;;;;19.10;11.60;;;;;;;12.27;69.89;100287.00;5130548;27;20042;-46
2024/03/15 09:30:53;;;;;;;18.90;12.00;;;;;;;12.47;69.12;100287.50;5113818;27;20361;-46
2024/03/15 09:33:38;;;;;;;20.50;12.63;;;;;;;12.44;69.56;100280.50;5114140;27;20078;-49
2024/03/15 09:36:07;;;;;;;28.02;15.55;;;;;;;12.78;68.23;100280.91;5114082;27;20043;-45
2024/03/15 09:38:36;;;;;;;22.20;12.68;;;;;;;12.91;67.90;100281.75;5113505;27;20050;-47
2024/03/15 09:41:05;;;;;;;22.85;12.65;;;;;;;13.09;66.05;100280.47;5113101;27;20108;-48
2024/03/15 09:43:34;;;;;;;21.13;11.60;;;;;;;13.09;65.58;100275.13;5111235;27;20398;-49
2024/03/15 09:46:04;;;;;;;23.45;12.25;;;;;;;13.47;65.20;100263.53;5113477;27;20129;-48
2024/03/15 09:48:33;;;;;;;19.58;12.40;;;;;;;13.02;64.69;100268.47;5113523;27;20047;-48
2024/03/15 09:51:03;;;;;;;19.17;12.07;;;;;;;13.10;64.82;100267.94;5113214;27;20058;-48
2024/03/15 09:53:32;;;;;;;20.23;12.10;;;;;;;13.14;64.31;100262.28;5112116;27;20054;-47
2024/03/15 09:56:03;;;;;;;19.08;11.93;;;;;;;13.43;61.50;100267.44;5113656;27;20040;-46
2024/03/15 09:58:32;;;;;;;19.20;11.38;;;;;;;13.73;62.34;100265.19;5113803;27;20135;-47
2024/03/15 10:01:01;;;;;;;17.83;11.15;;;;;;;13.67;60.52;100265.63;5112913;27;20043;-47
2024/03/15 10:03:32;;;;;;;17.35;10.45;;;;;;;13.45;59.16;100266.34;5111265;27;20050;-47
2024/03/15 10:06:01;;;;;;;16.27;10.68;;;;;;;13.49;58.48;100261.59;5113174;28;20043;-46
2024/03/15 10:08:30;;;;;;;17.88;10.88;;;;;;;13.64;57.02;100260.50;5112390;28;20480;-48
2024/03/15 10:10:58;;;;;;;18.35;10.90;;;;;;;13.73;57.77;100259.84;5113048;28;20078;-46
2024/03/15 10:13:29;;;;;;;15.85;10.70;;;;;;;13.79;57.79;100257.66;5111655;27;20062;-49
2024/03/15 10:15:59;;;;;;;17.17;10.85;;;;;;;13.96;56.74;100254.59;5113515;28;20126;-46
2024/03/15 10:18:28;;;;;;;15.85;9.15;;;;;;;13.78;51.64;100253.28;5113124;28;20123;-50
2024/03/15 10:20:57;;;;;;;15.68;9.27;;;;;;;13.89;52.56;100245.28;5113010;28;20487;-46
2024/03/15 10:23:25;;;;;;;17.75;9.88;;;;;;;13.98;52.07;100241.94;5110955;28;20074;-47
2024/03/15 10:25:54;;;;;;;15.77;9.68;;;;;;;13.88;52.68;100251.63;5112809;27;20099;-47
2024/03/15 10:28:23;;;;;;;15.35;9.32;;;;;;;14.20;51.23;100238.50;5113396;28;20373;-47
2024/03/15 10:30:51;;;;;;;16.48;8.60;;;;;;;14.56;49.27;100237.56;5112603;28;20047;-48
2024/03/15 10:33:19;;;;;;;13.52;8.68;;;;;;;14.66;50.06;100243.91;5110880;28;20058;-49
2024/03/15 10:35:48;;;;;;;17.20;9.25;;;;;;;14.76;47.72;100242.22;5112688;28;20089;-48
2024/03/15 10:38:16;;;;;;;14.52;9.45;;;;;;;14.72;46.81;100243.47;5112832;28;20043;-46
2024/03/15 10:40:45;;;;;;;13.38;8.75;;;;;;;14.68;46.50;100233.09;5112709;28;20046;-48
2024/03/15 10:43:13;;;;;;;13.68;8.63;;;;;;;14.76;46.56;100228.81;5110948;28;20127;-49
2024/03/15 10:45:43;;;;;;;11.05;6.63;;;;;;;14.69;42.05;100243.69;5093201;28;20510;-45
2024/03/15 10:48:12;;;;;;;12.90;7.45;;;;;;;14.95;41.51;100232.75;5094331;28;20113;-48
2024/03/15 10:50:42;;;;;;;10.68;6.93;;;;;;;15.13;40.42;100226.78;5093723;28;20604;-48
2024/03/15 10:53:10;;;;;;;12.18;7.57;;;;;;;15.03;41.25;100230.31;5097804;28;20071;-47
2024/03/15 10:55:38;;;;;;;11.63;7.38;;;;;;;14.87;41.37;100223.47;5112844;27;20043;-46
2024/03/15 10:58:07;;;;;;;11.15;7.28;;;;;;;15.09;41.95;100227.16;5116617;27;20502;-49
2024/03/15 11:00:36;;;;;;;10.40;6.65;;;;;;;15.37;41.26;100218.59;5116630;27;20532;-48
2024/03/15 11:03:11;;;;;;;11.10;7.22;;;;;;;15.48;41.43;100217.72;5111077;28;20440;-53
2024/03/15 11:05:40;;;;;;;11.65;7.25;;;;;;;15.54;40.62;100219.03;5133717;27;20149;-48
2024/03/15 11:08:10;;;;;;;12.93;7.50;;;;;;;15.45;40.38;100221.53;5117472;27;20137;-46
2024/03/15 11:10:38;;;;;;;14.07;8.07;;;;;;;15.61;40.34;100215.78;5116305;27;20047;-45
2024/03/15 11:13:08;;;;;;;14.25;8.55;;;;;;;15.27;40.15;100220.31;5114507;27;20411;-47
2024/03/15 11:15:36;;;;;;;10.80;7.28;;;;;;;15.15;40.55;100213.22;5116275;27;20043;-48
2024/03/15 11:18:06;;;;;;;10.98;7.15;;;;;;;14.95;40.04;100213.94;5116948;27;20483;-47
2024/03/15 11:20:45;;;;;;;10.98;6.93;;;;;;;15.20;39.59;100216.41;5117176;27;20466;-46
2024/03/15 11:23:13;;;;;;;11.90;6.97;;;;;;;15.14;39.84;100216.88;5114581;27;20108;-48
2024/03/15 11:25:44;;;;;;;14.32;7.18;;;;;;;14.82;39.27;100211.38;5112525;28;20044;-46
2024/03/15 11:28:13;;;;;;;11.77;7.65;;;;;;;14.80;39.64;100214.19;5096339;28;20354;-46
2024/03/15 11:30:41;;;;;;;11.60;7.50;;;;;;;14.98;39.24;100209.19;5095804;28;20050;-50